sensor_id;sensor_type;location;lat;lon;timestamp;P1;durP1;ratioP1;P2;durP2;ratioP2
78563;SDS011;67856;47.754;19.088;2024-01-11T00:00:59;28.60;;;16.27;;
78563;SDS011;67856;47.754;19.088;2024-01-11T00:04:02;34.45;;;17.58;;
78563;SDS011;67856;47.754;19.088;2024-01-11T00:07:04;32.35;;;16.65;;
78563;SDS011;67856;47.754;19.088;2024-01-11T00:10:07;29.95;;;15.65;;
78563;SDS011;67856;47.754;19.088;2024-01-11T00:13:10;37.13;;;18.60;;
78563;SDS011;67856;47.754;19.088;2024-01-11T00:16:13;37.20;;;18.47;;
78563;SDS011;67856;47.754;19.088;2024-01-11T00:19:15;34.53;;;18.23;;
78563;SDS011;67856;47.754;19.088;2024-01-11T00:22:18;34.25;;;17.60;;
78563;SDS011;67856;47.754;19.088;2024-01-11T00:25:20;31.73;;;17.00;;
78563;SDS011;67856;47.754;19.088;2024-01-11T00:28:22;34.40;;;18.50;;
78563;SDS011;67856;47.754;19.088;2024-01-11T00:31:25;34.07;;;18.33;;
78563;SDS011;67856;47.754;19.088;2024-01-11T00:34:27;33.28;;;17.02;;
78563;SDS011;67856;47.754;19.088;2024-01-11T00:37:30;34.78;;;18.60;;
78563;SDS011;67856;47.754;19.088;2024-01-11T00:40:32;35.67;;;19.10;;
78563;SDS011;67856;47.754;19.088;2024-01-11T00:43:35;32.85;;;18.17;;
78563;SDS011;67856;47.754;19.088;2024-01-11T00:46:38;35.53;;;18.10;;
78563;SDS011;67856;47.754;19.088;2024-01-11T00:49:41;33.83;;;19.38;;
78563;SDS011;67856;47.754;19.088;2024-01-11T00:52:45;31.48;;;17.95;;
78563;SDS011;67856;47.754;19.088;2024-01-11T00:55:47;34.80;;;18.50;;
78563;SDS011;67856;47.754;19.088;2024-01-11T00:58:50;30.70;;;16.40;;
78563;SDS011;67856;47.754;19.088;2024-01-11T01:01:52;28.27;;;15.67;;
78563;SDS011;67856;47.754;19.088;2024-01-11T01:04:55;30.05;;;16.80;;
78563;SDS011;67856;47.754;19.088;2024-01-11T01:07:57;34.75;;;21.15;;
78563;SDS011;67856;47.754;19.088;2024-01-11T01:11:00;29.15;;;16.15;;
78563;SDS011;67856;47.754;19.088;2024-01-11T01:14:02;30.23;;;17.05;;
78563;SDS011;67856;47.754;19.088;2024-01-11T01:17:05;30.50;;;17.83;;
78563;SDS011;67856;47.754;19.088;2024-01-11T01:20:07;35.45;;;18.60;;
78563;SDS011;67856;47.754;19.088;2024-01-11T01:23:11;28.67;;;16.40;;
78563;SDS011;67856;47.754;19.088;2024-01-11T01:26:13;33.97;;;18.10;;
78563;SDS011;67856;47.754;19.088;2024-01-11T01:29:16;35.83;;;19.98;;
78563;SDS011;67856;47.754;19.088;2024-01-11T01:32:18;34.27;;;19.37;;
78563;SDS011;67856;47.754;19.088;2024-01-11T01:35:21;32.97;;;17.77;;
78563;SDS011;67856;47.754;19.088;2024-01-11T01:38:24;32.05;;;18.27;;
78563;SDS011;67856;47.754;19.088;2024-01-11T01:41:26;33.83;;;18.17;;
78563;SDS011;67856;47.754;19.088;2024-01-11T01:44:29;31.20;;;17.50;;
78563;SDS011;67856;47.754;19.088;2024-01-11T01:47:31;36.30;;;19.83;;
78563;SDS011;67856;47.754;19.088;2024-01-11T01:50:34;36.67;;;20.83;;
78563;SDS011;67856;47.754;19.088;2024-01-11T01:53:37;34.05;;;18.17;;
78563;SDS011;67856;47.754;19.088;2024-01-11T01:56:39;34.53;;;18.80;;
78563;SDS011;67856;47.754;19.088;2024-01-11T01:59:42;35.20;;;19.20;;
78563;SDS011;67856;47.754;19.088;2024-01-11T02:02:45;36.40;;;19.70;;
78563;SDS011;67856;47.754;19.088;2024-01-11T02:05:49;28.35;;;16.98;;
78563;SDS011;67856;47.754;19.088;2024-01-11T02:08:53;33.28;;;17.73;;
78563;SDS011;67856;47.754;19.088;2024-01-11T02:11:57;33.63;;;19.10;;
78563;SDS011;67856;47.754;19.088;2024-01-11T02:15:00;31.92;;;17.88;;
78563;SDS011;67856;47.754;19.088;2024-01-11T02:18:03;34.27;;;19.60;;
78563;SDS011;67856;47.754;19.088;2024-01-11T02:21:06;32.22;;;17.60;;
78563;SDS011;67856;47.754;19.088;2024-01-11T02:24:11;33.05;;;19.05;;
78563;SDS011;67856;47.754;19.088;2024-01-11T02:27:14;31.15;;;17.92;;
78563;SDS011;67856;47.754;19.088;2024-01-11T02:30:16;33.38;;;19.65;;
78563;SDS011;67856;47.754;19.088;2024-01-11T02:33:19;30.67;;;16.73;;
78563;SDS011;67856;47.754;19.088;2024-01-11T02:36:22;33.70;;;18.52;;
78563;SDS011;67856;47.754;19.088;2024-01-11T02:39:25;32.40;;;17.88;;
78563;SDS011;67856;47.754;19.088;2024-01-11T02:42:28;33.83;;;17.67;;
78563;SDS011;67856;47.754;19.088;2024-01-11T02:45:30;29.58;;;16.35;;
78563;SDS011;67856;47.754;19.088;2024-01-11T02:48:33;27.43;;;14.97;;
78563;SDS011;67856;47.754;19.088;2024-01-11T02:51:35;27.10;;;15.50;;
78563;SDS011;67856;47.754;19.088;2024-01-11T02:54:38;26.55;;;15.98;;
78563;SDS011;67856;47.754;19.088;2024-01-11T02:57:41;33.22;;;17.77;;
78563;SDS011;67856;47.754;19.088;2024-01-11T03:00:43;32.42;;;17.05;;
78563;SDS011;67856;47.754;19.088;2024-01-11T03:03:45;31.43;;;17.57;;
78563;SDS011;67856;47.754;19.088;2024-01-11T03:06:50;26.20;;;15.63;;
78563;SDS011;67856;47.754;19.088;2024-01-11T03:09:53;27.35;;;14.98;;
78563;SDS011;67856;47.754;19.088;2024-01-11T03:12:56;24.13;;;12.98;;
78563;SDS011;67856;47.754;19.088;2024-01-11T03:16:00;26.05;;;14.57;;
78563;SDS011;67856;47.754;19.088;2024-01-11T03:19:02;20.27;;;11.63;;
78563;SDS011;67856;47.754;19.088;2024-01-11T03:22:05;22.67;;;12.68;;
78563;SDS011;67856;47.754;19.088;2024-01-11T03:25:09;22.35;;;12.77;;
78563;SDS011;67856;47.754;19.088;2024-01-11T03:28:12;20.30;;;12.40;;
78563;SDS011;67856;47.754;19.088;2024-01-11T03:31:15;18.02;;;10.70;;
78563;SDS011;67856;47.754;19.088;2024-01-11T03:34:17;17.03;;;10.17;;
78563;SDS011;67856;47.754;19.088;2024-01-11T03:37:20;18.83;;;10.75;;
78563;SDS011;67856;47.754;19.088;2024-01-11T03:40:22;19.85;;;11.30;;
78563;SDS011;67856;47.754;19.088;2024-01-11T03:43:25;16.85;;;9.73;;
78563;SDS011;67856;47.754;19.088;2024-01-11T03:46:28;18.08;;;11.00;;
78563;SDS011;67856;47.754;19.088;2024-01-11T03:49:30;18.00;;;10.53;;
78563;SDS011;67856;47.754;19.088;2024-01-11T03:52:33;16.02;;;10.13;;
78563;SDS011;67856;47.754;19.088;2024-01-11T03:55:35;18.50;;;10.23;;
78563;SDS011;67856;47.754;19.088;2024-01-11T03:58:38;17.58;;;9.95;;
78563;SDS011;67856;47.754;19.088;2024-01-11T04:01:46;16.20;;;9.93;;
78563;SDS011;67856;47.754;19.088;2024-01-11T04:04:49;17.77;;;10.67;;
78563;SDS011;67856;47.754;19.088;2024-01-11T04:07:51;16.77;;;10.40;;
78563;SDS011;67856;47.754;19.088;2024-01-11T04:10:54;16.58;;;9.85;;
78563;SDS011;67856;47.754;19.088;2024-01-11T04:13:56;14.90;;;9.82;;
78563;SDS011;67856;47.754;19.088;2024-01-11T04:16:59;16.63;;;10.18;;
78563;SDS011;67856;47.754;19.088;2024-01-11T04:20:01;15.93;;;9.83;;
78563;SDS011;67856;47.754;19.088;2024-01-11T04:23:04;14.57;;;9.65;;
78563;SDS011;67856;47.754;19.088;2024-01-11T04:26:06;16.10;;;10.07;;
78563;SDS011;67856;47.754;19.088;2024-01-11T04:29:09;16.40;;;10.38;;
78563;SDS011;67856;47.754;19.088;2024-01-11T04:32:11;17.65;;;10.68;;
78563;SDS011;67856;47.754;19.088;2024-01-11T04:35:14;14.70;;;9.77;;
78563;SDS011;67856;47.754;19.088;2024-01-11T04:38:16;17.00;;;9.63;;
78563;SDS011;67856;47.754;19.088;2024-01-11T04:41:19;15.15;;;9.75;;
78563;SDS011;67856;47.754;19.088;2024-01-11T04:44:21;15.73;;;9.15;;
78563;SDS011;67856;47.754;19.088;2024-01-11T04:47:27;14.80;;;9.48;;
78563;SDS011;67856;47.754;19.088;2024-01-11T04:50:30;15.53;;;9.93;;
78563;SDS011;67856;47.754;19.088;2024-01-11T04:53:32;15.13;;;9.93;;
78563;SDS011;67856;47.754;19.088;2024-01-11T04:56:35;15.98;;;9.45;;
78563;SDS011;67856;47.754;19.088;2024-01-11T04:59:37;13.85;;;9.50;;
78563;SDS011;67856;47.754;19.088;2024-01-11T05:02:40;13.70;;;9.02;;
78563;SDS011;67856;47.754;19.088;2024-01-11T05:05:42;14.57;;;9.13;;
78563;SDS011;67856;47.754;19.088;2024-01-11T05:08:45;14.90;;;9.43;;
78563;SDS011;67856;47.754;19.088;2024-01-11T05:11:48;16.90;;;9.77;;
78563;SDS011;67856;47.754;19.088;2024-01-11T05:14:51;15.45;;;9.48;;
78563;SDS011;67856;47.754;19.088;2024-01-11T05:17:54;18.05;;;10.20;;
78563;SDS011;67856;47.754;19.088;2024-01-11T05:20:58;15.57;;;9.80;;
78563;SDS011;67856;47.754;19.088;2024-01-11T05:24:00;15.10;;;9.57;;
78563;SDS011;67856;47.754;19.088;2024-01-11T05:27:03;14.13;;;8.95;;
78563;SDS011;67856;47.754;19.088;2024-01-11T05:30:06;16.60;;;10.10;;
78563;SDS011;67856;47.754;19.088;2024-01-11T05:33:09;14.25;;;9.25;;
78563;SDS011;67856;47.754;19.088;2024-01-11T05:36:12;14.70;;;8.97;;
78563;SDS011;67856;47.754;19.088;2024-01-11T05:39:14;15.23;;;9.45;;
78563;SDS011;67856;47.754;19.088;2024-01-11T05:42:17;14.98;;;9.55;;
78563;SDS011;67856;47.754;19.088;2024-01-11T05:45:19;13.85;;;9.35;;
78563;SDS011;67856;47.754;19.088;2024-01-11T05:48:30;12.77;;;8.85;;
78563;SDS011;67856;47.754;19.088;2024-01-11T05:51:32;13.37;;;8.37;;
78563;SDS011;67856;47.754;19.088;2024-01-11T05:54:35;16.50;;;10.57;;
78563;SDS011;67856;47.754;19.088;2024-01-11T05:57:37;19.58;;;11.93;;
78563;SDS011;67856;47.754;19.088;2024-01-11T06:00:39;22.70;;;13.63;;
78563;SDS011;67856;47.754;19.088;2024-01-11T06:03:43;22.83;;;14.50;;
78563;SDS011;67856;47.754;19.088;2024-01-11T06:06:46;21.33;;;13.40;;
78563;SDS011;67856;47.754;19.088;2024-01-11T06:09:48;22.38;;;14.18;;
78563;SDS011;67856;47.754;19.088;2024-01-11T06:12:51;24.38;;;14.73;;
78563;SDS011;67856;47.754;19.088;2024-01-11T06:15:53;20.67;;;13.95;;
78563;SDS011;67856;47.754;19.088;2024-01-11T06:18:56;24.15;;;15.07;;
78563;SDS011;67856;47.754;19.088;2024-01-11T06:21:59;20.30;;;13.73;;
78563;SDS011;67856;47.754;19.088;2024-01-11T06:25:01;24.50;;;14.50;;
78563;SDS011;67856;47.754;19.088;2024-01-11T06:28:04;24.65;;;15.10;;
78563;SDS011;67856;47.754;19.088;2024-01-11T06:31:11;22.23;;;14.52;;
78563;SDS011;67856;47.754;19.088;2024-01-11T06:34:14;23.15;;;14.38;;
78563;SDS011;67856;47.754;19.088;2024-01-11T06:37:17;25.57;;;14.23;;
78563;SDS011;67856;47.754;19.088;2024-01-11T06:40:20;28.45;;;16.20;;
78563;SDS011;67856;47.754;19.088;2024-01-11T06:43:22;36.40;;;16.88;;
78563;SDS011;67856;47.754;19.088;2024-01-11T06:46:25;38.67;;;17.40;;
78563;SDS011;67856;47.754;19.088;2024-01-11T06:49:27;32.88;;;16.58;;
78563;SDS011;67856;47.754;19.088;2024-01-11T06:52:30;36.73;;;15.70;;
78563;SDS011;67856;47.754;19.088;2024-01-11T06:55:42;34.38;;;16.00;;
78563;SDS011;67856;47.754;19.088;2024-01-11T06:58:46;29.33;;;15.98;;
78563;SDS011;67856;47.754;19.088;2024-01-11T07:01:48;37.00;;;17.00;;
78563;SDS011;67856;47.754;19.088;2024-01-11T07:04:51;33.92;;;17.13;;
78563;SDS011;67856;47.754;19.088;2024-01-11T07:07:53;38.00;;;17.83;;
78563;SDS011;67856;47.754;19.088;2024-01-11T07:10:56;38.42;;;17.23;;
78563;SDS011;67856;47.754;19.088;2024-01-11T07:14:01;34.90;;;18.05;;
78563;SDS011;67856;47.754;19.088;2024-01-11T07:17:06;34.83;;;17.05;;
78563;SDS011;67856;47.754;19.088;2024-01-11T07:20:09;38.75;;;17.42;;
78563;SDS011;67856;47.754;19.088;2024-01-11T07:23:12;35.23;;;16.67;;
78563;SDS011;67856;47.754;19.088;2024-01-11T07:26:15;36.10;;;18.45;;
78563;SDS011;67856;47.754;19.088;2024-01-11T07:29:18;39.78;;;19.60;;
78563;SDS011;67856;47.754;19.088;2024-01-11T07:32:21;41.35;;;19.95;;
78563;SDS011;67856;47.754;19.088;2024-01-11T07:35:24;44.88;;;20.27;;
78563;SDS011;67856;47.754;19.088;2024-01-11T07:38:26;43.73;;;20.30;;
78563;SDS011;67856;47.754;19.088;2024-01-11T07:41:29;44.90;;;20.33;;
78563;SDS011;67856;47.754;19.088;2024-01-11T07:44:31;42.38;;;20.15;;
78563;SDS011;67856;47.754;19.088;2024-01-11T07:47:34;42.55;;;20.58;;
78563;SDS011;67856;47.754;19.088;2024-01-11T07:50:37;50.28;;;21.27;;
78563;SDS011;67856;47.754;19.088;2024-01-11T07:53:39;48.47;;;21.20;;
78563;SDS011;67856;47.754;19.088;2024-01-11T07:56:43;38.88;;;20.15;;
78563;SDS011;67856;47.754;19.088;2024-01-11T07:59:45;47.30;;;21.05;;
78563;SDS011;67856;47.754;19.088;2024-01-11T08:02:48;50.40;;;20.52;;
78563;SDS011;67856;47.754;19.088;2024-01-11T08:05:51;43.10;;;20.80;;
78563;SDS011;67856;47.754;19.088;2024-01-11T08:08:54;54.70;;;22.20;;
78563;SDS011;67856;47.754;19.088;2024-01-11T08:11:57;50.38;;;20.77;;
78563;SDS011;67856;47.754;19.088;2024-01-11T08:15:00;55.22;;;22.13;;
78563;SDS011;67856;47.754;19.088;2024-01-11T08:18:03;53.67;;;21.85;;
78563;SDS011;67856;47.754;19.088;2024-01-11T08:21:07;51.95;;;20.52;;
78563;SDS011;67856;47.754;19.088;2024-01-11T08:24:11;57.00;;;21.60;;
78563;SDS011;67856;47.754;19.088;2024-01-11T08:27:14;58.38;;;21.13;;
78563;SDS011;67856;47.754;19.088;2024-01-11T08:30:19;56.60;;;21.50;;
78563;SDS011;67856;47.754;19.088;2024-01-11T08:33:22;52.17;;;20.70;;
78563;SDS011;67856;47.754;19.088;2024-01-11T08:36:24;46.80;;;21.27;;
78563;SDS011;67856;47.754;19.088;2024-01-11T08:39:32;47.73;;;20.47;;
78563;SDS011;67856;47.754;19.088;2024-01-11T08:42:36;47.38;;;20.10;;
78563;SDS011;67856;47.754;19.088;2024-01-11T08:45:38;48.05;;;21.45;;
78563;SDS011;67856;47.754;19.088;2024-01-11T08:48:41;45.97;;;20.90;;
78563;SDS011;67856;47.754;19.088;2024-01-11T08:51:44;46.05;;;21.20;;
78563;SDS011;67856;47.754;19.088;2024-01-11T08:54:47;51.27;;;22.80;;
78563;SDS011;67856;47.754;19.088;2024-01-11T08:57:49;50.08;;;22.83;;
78563;SDS011;67856;47.754;19.088;2024-01-11T09:00:52;48.60;;;21.85;;
78563;SDS011;67856;47.754;19.088;2024-01-11T09:03:55;52.78;;;20.95;;
78563;SDS011;67856;47.754;19.088;2024-01-11T09:06:57;44.03;;;21.88;;
78563;SDS011;67856;47.754;19.088;2024-01-11T09:10:00;48.30;;;21.60;;
78563;SDS011;67856;47.754;19.088;2024-01-11T09:13:02;47.28;;;20.80;;
78563;SDS011;67856;47.754;19.088;2024-01-11T09:16:05;48.03;;;20.95;;
78563;SDS011;67856;47.754;19.088;2024-01-11T09:19:09;54.28;;;20.45;;
78563;SDS011;67856;47.754;19.088;2024-01-11T09:22:11;42.60;;;19.45;;
78563;SDS011;67856;47.754;19.088;2024-01-11T09:25:14;43.53;;;19.53;;
78563;SDS011;67856;47.754;19.088;2024-01-11T09:28:17;42.20;;;19.23;;
78563;SDS011;67856;47.754;19.088;2024-01-11T09:31:19;39.20;;;19.15;;
78563;SDS011;67856;47.754;19.088;2024-01-11T09:34:22;40.00;;;18.60;;
78563;SDS011;67856;47.754;19.088;2024-01-11T09:37:27;39.15;;;17.95;;
78563;SDS011;67856;47.754;19.088;2024-01-11T09:40:30;32.07;;;17.73;;
78563;SDS011;67856;47.754;19.088;2024-01-11T09:43:35;34.13;;;17.70;;
78563;SDS011;67856;47.754;19.088;2024-01-11T09:46:38;37.22;;;18.23;;
78563;SDS011;67856;47.754;19.088;2024-01-11T09:49:40;32.85;;;17.27;;
78563;SDS011;67856;47.754;19.088;2024-01-11T09:52:45;37.45;;;17.73;;
78563;SDS011;67856;47.754;19.088;2024-01-11T09:55:50;31.90;;;16.63;;
78563;SDS011;67856;47.754;19.088;2024-01-11T09:58:53;37.35;;;17.55;;
78563;SDS011;67856;47.754;19.088;2024-01-11T10:01:55;33.38;;;16.83;;
78563;SDS011;67856;47.754;19.088;2024-01-11T10:04:57;36.78;;;17.95;;
78563;SDS011;67856;47.754;19.088;2024-01-11T10:08:00;45.42;;;17.20;;
78563;SDS011;67856;47.754;19.088;2024-01-11T10:11:02;31.47;;;16.47;;
78563;SDS011;67856;47.754;19.088;2024-01-11T10:14:05;41.33;;;16.55;;
78563;SDS011;67856;47.754;19.088;2024-01-11T10:17:08;29.83;;;16.77;;
78563;SDS011;67856;47.754;19.088;2024-01-11T10:20:17;33.75;;;16.33;;
78563;SDS011;67856;47.754;19.088;2024-01-11T10:23:26;31.75;;;16.48;;
78563;SDS011;67856;47.754;19.088;2024-01-11T10:26:31;30.27;;;15.77;;
78563;SDS011;67856;47.754;19.088;2024-01-11T10:29:34;31.90;;;15.93;;
78563;SDS011;67856;47.754;19.088;2024-01-11T10:32:40;28.45;;;15.93;;
78563;SDS011;67856;47.754;19.088;2024-01-11T10:35:42;26.58;;;15.95;;
78563;SDS011;67856;47.754;19.088;2024-01-11T10:38:45;26.83;;;16.25;;
78563;SDS011;67856;47.754;19.088;2024-01-11T10:41:50;34.50;;;14.93;;
78563;SDS011;67856;47.754;19.088;2024-01-11T10:45:06;27.63;;;15.15;;
78563;SDS011;67856;47.754;19.088;2024-01-11T10:48:14;29.10;;;14.50;;
78563;SDS011;67856;47.754;19.088;2024-01-11T10:51:18;34.60;;;14.48;;
78563;SDS011;67856;47.754;19.088;2024-01-11T10:54:23;34.75;;;13.85;;
78563;SDS011;67856;47.754;19.088;2024-01-11T10:57:26;34.73;;;13.93;;
78563;SDS011;67856;47.754;19.088;2024-01-11T11:00:34;29.92;;;14.18;;
78563;SDS011;67856;47.754;19.088;2024-01-11T11:03:37;33.40;;;14.13;;
78563;SDS011;67856;47.754;19.088;2024-01-11T11:06:42;38.33;;;13.55;;
78563;SDS011;67856;47.754;19.088;2024-01-11T11:09:45;35.92;;;13.40;;
78563;SDS011;67856;47.754;19.088;2024-01-11T11:12:48;40.03;;;13.40;;
78563;SDS011;67856;47.754;19.088;2024-01-11T11:15:54;45.63;;;14.65;;
78563;SDS011;67856;47.754;19.088;2024-01-11T11:19:03;35.50;;;13.35;;
78563;SDS011;67856;47.754;19.088;2024-01-11T11:22:06;32.00;;;12.90;;
78563;SDS011;67856;47.754;19.088;2024-01-11T11:25:09;31.13;;;12.60;;
78563;SDS011;67856;47.754;19.088;2024-01-11T11:28:16;28.27;;;12.70;;
78563;SDS011;67856;47.754;19.088;2024-01-11T11:31:38;26.98;;;12.32;;
78563;SDS011;67856;47.754;19.088;2024-01-11T11:34:44;31.05;;;12.15;;
78563;SDS011;67856;47.754;19.088;2024-01-11T11:37:47;29.73;;;12.18;;
78563;SDS011;67856;47.754;19.088;2024-01-11T11:40:52;27.80;;;11.25;;
78563;SDS011;67856;47.754;19.088;2024-01-11T11:44:00;33.50;;;12.90;;
78563;SDS011;67856;47.754;19.088;2024-01-11T11:47:20;29.83;;;12.15;;
78563;SDS011;67856;47.754;19.088;2024-01-11T11:50:24;28.98;;;11.32;;
78563;SDS011;67856;47.754;19.088;2024-01-11T11:53:29;34.33;;;11.82;;
78563;SDS011;67856;47.754;19.088;2024-01-11T11:56:37;26.30;;;11.20;;
78563;SDS011;67856;47.754;19.088;2024-01-11T11:59:44;33.83;;;11.30;;
78563;SDS011;67856;47.754;19.088;2024-01-11T12:02:47;23.40;;;11.15;;
78563;SDS011;67856;47.754;19.088;2024-01-11T12:05:50;29.88;;;11.32;;
78563;SDS011;67856;47.754;19.088;2024-01-11T12:08:54;40.30;;;11.40;;
78563;SDS011;67856;47.754;19.088;2024-01-11T12:11:59;30.48;;;10.80;;
78563;SDS011;67856;47.754;19.088;2024-01-11T12:15:16;25.87;;;10.30;;
78563;SDS011;67856;47.754;19.088;2024-01-11T12:18:20;29.60;;;10.38;;
78563;SDS011;67856;47.754;19.088;2024-01-11T12:21:23;26.63;;;9.68;;
78563;SDS011;67856;47.754;19.088;2024-01-11T12:24:26;29.25;;;10.57;;
78563;SDS011;67856;47.754;19.088;2024-01-11T12:27:29;26.95;;;10.02;;
78563;SDS011;67856;47.754;19.088;2024-01-11T12:30:32;22.23;;;9.30;;
78563;SDS011;67856;47.754;19.088;2024-01-11T12:33:35;31.60;;;10.10;;
78563;SDS011;67856;47.754;19.088;2024-01-11T12:36:41;25.08;;;9.70;;
78563;SDS011;67856;47.754;19.088;2024-01-11T12:39:43;23.95;;;9.80;;
78563;SDS011;67856;47.754;19.088;2024-01-11T12:42:46;29.17;;;9.55;;
78563;SDS011;67856;47.754;19.088;2024-01-11T12:45:51;27.70;;;8.70;;
78563;SDS011;67856;47.754;19.088;2024-01-11T12:48:56;29.85;;;8.75;;
78563;SDS011;67856;47.754;19.088;2024-01-11T12:51:58;36.00;;;8.90;;
78563;SDS011;67856;47.754;19.088;2024-01-11T12:55:01;27.20;;;9.25;;
78563;SDS011;67856;47.754;19.088;2024-01-11T12:58:06;22.90;;;8.93;;
78563;SDS011;67856;47.754;19.088;2024-01-11T13:01:11;31.73;;;8.60;;
78563;SDS011;67856;47.754;19.088;2024-01-11T13:04:14;25.63;;;8.70;;
78563;SDS011;67856;47.754;19.088;2024-01-11T13:07:17;30.55;;;9.25;;
78563;SDS011;67856;47.754;19.088;2024-01-11T13:10:19;24.40;;;8.93;;
78563;SDS011;67856;47.754;19.088;2024-01-11T13:13:22;30.83;;;8.85;;
78563;SDS011;67856;47.754;19.088;2024-01-11T13:16:26;28.70;;;8.90;;
78563;SDS011;67856;47.754;19.088;2024-01-11T13:19:28;29.17;;;8.90;;
78563;SDS011;67856;47.754;19.088;2024-01-11T13:22:32;25.08;;;8.07;;
78563;SDS011;67856;47.754;19.088;2024-01-11T13:25:34;28.23;;;9.30;;
78563;SDS011;67856;47.754;19.088;2024-01-11T13:28:38;30.02;;;8.70;;
78563;SDS011;67856;47.754;19.088;2024-01-11T13:31:41;24.37;;;8.77;;
78563;SDS011;67856;47.754;19.088;2024-01-11T13:34:43;23.13;;;8.73;;
78563;SDS011;67856;47.754;19.088;2024-01-11T13:37:48;38.22;;;8.40;;
78563;SDS011;67856;47.754;19.088;2024-01-11T13:40:50;26.42;;;8.70;;
78563;SDS011;67856;47.754;19.088;2024-01-11T13:43:52;19.95;;;8.38;;
78563;SDS011;67856;47.754;19.088;2024-01-11T13:46:56;22.93;;;8.50;;
78563;SDS011;67856;47.754;19.088;2024-01-11T13:49:59;25.67;;;8.38;;
78563;SDS011;67856;47.754;19.088;2024-01-11T13:53:02;23.10;;;8.25;;
78563;SDS011;67856;47.754;19.088;2024-01-11T13:56:04;31.13;;;7.97;;
78563;SDS011;67856;47.754;19.088;2024-01-11T13:59:08;32.65;;;8.30;;
78563;SDS011;67856;47.754;19.088;2024-01-11T14:02:10;22.00;;;8.10;;
78563;SDS011;67856;47.754;19.088;2024-01-11T14:05:14;23.00;;;8.10;;
78563;SDS011;67856;47.754;19.088;2024-01-11T14:08:20;24.90;;;7.97;;
78563;SDS011;67856;47.754;19.088;2024-01-11T14:11:23;28.75;;;7.78;;
78563;SDS011;67856;47.754;19.088;2024-01-11T14:14:26;24.65;;;7.28;;
78563;SDS011;67856;47.754;19.088;2024-01-11T14:17:28;26.03;;;7.53;;
78563;SDS011;67856;47.754;19.088;2024-01-11T14:20:31;21.42;;;8.07;;
78563;SDS011;67856;47.754;19.088;2024-01-11T14:23:36;20.60;;;7.18;;
78563;SDS011;67856;47.754;19.088;2024-01-11T14:26:38;26.65;;;7.47;;
78563;SDS011;67856;47.754;19.088;2024-01-11T14:29:41;24.95;;;7.55;;
78563;SDS011;67856;47.754;19.088;2024-01-11T14:32:44;17.00;;;6.97;;
78563;SDS011;67856;47.754;19.088;2024-01-11T14:35:48;26.92;;;7.50;;
78563;SDS011;67856;47.754;19.088;2024-01-11T14:38:50;24.20;;;7.00;;
78563;SDS011;67856;47.754;19.088;2024-01-11T14:41:53;21.20;;;6.95;;
78563;SDS011;67856;47.754;19.088;2024-01-11T14:44:55;22.98;;;6.63;;
78563;SDS011;67856;47.754;19.088;2024-01-11T14:47:58;20.67;;;6.53;;
78563;SDS011;67856;47.754;19.088;2024-01-11T14:51:01;25.10;;;6.97;;
78563;SDS011;67856;47.754;19.088;2024-01-11T14:54:03;25.13;;;6.80;;
78563;SDS011;67856;47.754;19.088;2024-01-11T14:57:06;21.73;;;6.88;;
78563;SDS011;67856;47.754;19.088;2024-01-11T15:00:10;28.70;;;6.75;;
78563;SDS011;67856;47.754;19.088;2024-01-11T15:03:13;26.53;;;6.70;;
78563;SDS011;67856;47.754;19.088;2024-01-11T15:06:18;22.08;;;7.00;;
78563;SDS011;67856;47.754;19.088;2024-01-11T15:09:21;25.88;;;6.65;;
78563;SDS011;67856;47.754;19.088;2024-01-11T15:12:23;22.33;;;6.88;;
78563;SDS011;67856;47.754;19.088;2024-01-11T15:15:26;24.27;;;7.07;;
78563;SDS011;67856;47.754;19.088;2024-01-11T15:18:28;21.47;;;6.57;;
78563;SDS011;67856;47.754;19.088;2024-01-11T15:21:31;23.20;;;7.20;;
78563;SDS011;67856;47.754;19.088;2024-01-11T15:24:34;18.80;;;6.28;;
78563;SDS011;67856;47.754;19.088;2024-01-11T15:27:37;12.98;;;5.60;;
78563;SDS011;67856;47.754;19.088;2024-01-11T15:30:39;23.08;;;6.85;;
78563;SDS011;67856;47.754;19.088;2024-01-11T15:33:42;19.13;;;6.23;;
78563;SDS011;67856;47.754;19.088;2024-01-11T15:36:45;23.02;;;6.10;;
78563;SDS011;67856;47.754;19.088;2024-01-11T15:39:48;19.20;;;6.75;;
78563;SDS011;67856;47.754;19.088;2024-01-11T15:42:51;17.77;;;6.20;;
78563;SDS011;67856;47.754;19.088;2024-01-11T15:45:53;16.10;;;5.80;;
78563;SDS011;67856;47.754;19.088;2024-01-11T15:49:01;20.87;;;5.97;;
78563;SDS011;67856;47.754;19.088;2024-01-11T15:52:03;18.35;;;5.93;;
78563;SDS011;67856;47.754;19.088;2024-01-11T15:55:08;17.05;;;6.15;;
78563;SDS011;67856;47.754;19.088;2024-01-11T15:58:11;19.70;;;7.53;;
78563;SDS011;67856;47.754;19.088;2024-01-11T16:01:14;14.27;;;5.88;;
78563;SDS011;67856;47.754;19.088;2024-01-11T16:04:16;17.97;;;6.33;;
78563;SDS011;67856;47.754;19.088;2024-01-11T16:07:19;22.42;;;6.25;;
78563;SDS011;67856;47.754;19.088;2024-01-11T16:10:21;15.65;;;5.85;;
78563;SDS011;67856;47.754;19.088;2024-01-11T16:13:24;15.63;;;5.85;;
78563;SDS011;67856;47.754;19.088;2024-01-11T16:16:26;22.27;;;6.20;;
78563;SDS011;67856;47.754;19.088;2024-01-11T16:19:29;19.10;;;6.40;;
78563;SDS011;67856;47.754;19.088;2024-01-11T16:22:33;23.60;;;7.30;;
78563;SDS011;67856;47.754;19.088;2024-01-11T16:25:35;16.02;;;5.75;;
78563;SDS011;67856;47.754;19.088;2024-01-11T16:28:38;14.82;;;6.47;;
78563;SDS011;67856;47.754;19.088;2024-01-11T16:31:41;17.25;;;6.50;;
78563;SDS011;67856;47.754;19.088;2024-01-11T16:34:44;18.67;;;6.00;;
78563;SDS011;67856;47.754;19.088;2024-01-11T16:37:46;12.85;;;5.68;;
78563;SDS011;67856;47.754;19.088;2024-01-11T16:40:49;19.48;;;6.05;;
78563;SDS011;67856;47.754;19.088;2024-01-11T16:43:52;16.00;;;6.15;;
78563;SDS011;67856;47.754;19.088;2024-01-11T16:46:55;13.38;;;5.97;;
78563;SDS011;67856;47.754;19.088;2024-01-11T16:49:57;19.93;;;6.40;;
78563;SDS011;67856;47.754;19.088;2024-01-11T16:52:59;20.42;;;5.90;;
78563;SDS011;67856;47.754;19.088;2024-01-11T16:56:02;21.65;;;6.93;;
78563;SDS011;67856;47.754;19.088;2024-01-11T16:59:05;21.98;;;6.97;;
78563;SDS011;67856;47.754;19.088;2024-01-11T17:02:08;18.98;;;6.85;;
78563;SDS011;67856;47.754;19.088;2024-01-11T17:05:11;24.77;;;6.10;;
78563;SDS011;67856;47.754;19.088;2024-01-11T17:08:13;19.23;;;6.38;;
78563;SDS011;67856;47.754;19.088;2024-01-11T17:11:16;27.08;;;7.13;;
78563;SDS011;67856;47.754;19.088;2024-01-11T17:14:21;22.30;;;6.30;;
78563;SDS011;67856;47.754;19.088;2024-01-11T17:17:23;19.27;;;6.63;;
78563;SDS011;67856;47.754;19.088;2024-01-11T17:20:26;24.77;;;6.73;;
78563;SDS011;67856;47.754;19.088;2024-01-11T17:23:28;24.77;;;6.53;;
78563;SDS011;67856;47.754;19.088;2024-01-11T17:26:32;14.85;;;6.13;;
78563;SDS011;67856;47.754;19.088;2024-01-11T17:29:36;17.25;;;6.18;;
78563;SDS011;67856;47.754;19.088;2024-01-11T17:32:42;21.00;;;6.30;;
78563;SDS011;67856;47.754;19.088;2024-01-11T17:35:45;22.63;;;6.53;;
78563;SDS011;67856;47.754;19.088;2024-01-11T17:38:49;20.42;;;6.80;;
78563;SDS011;67856;47.754;19.088;2024-01-11T17:41:53;22.98;;;6.78;;